Latest Weather Observations for Kuitpo

IDS60901

Issued at 3:51 pm CST Friday 19 April 2019 (issued every 10 minutes, with the page automatically refreshed every 10 minutes)

About weather observations | Map of Adelaide area stations | Latest observations for Adelaide area | Other Formats
Station Details ID: 023887 Name: KUITPO FOREST RESERVE Lat: -35.17 Lon: 138.68 Height: 365.0 m
Data from the previous 72 hours. | See also: Recent months at Kuitpo
Date/Time
CST
Temp
°C
App
Temp
°C
Dew
Point
°C
Rel
Hum
%
Delta-T
°C
Wind Press
QNH
hPa
Press
MSL
hPa
Rain since
9am
mm
Dir  Spd
km/h
Gust
km/h
Spd
kts
Gust
kts
19/03:30pm 29.7 26.9 5.1 21 13.0 NW 9 19 5 10 1018.9 1018.3 0.0
19/03:00pm 29.9 26.6 4.5 20 13.3 WNW 11 19 6 10 1019.1 1018.4 0.0
19/02:30pm 29.3 25.3 4.7 21 12.9 NW 15 22 8 12 1019.2 1018.5 0.0
19/02:00pm 28.9 24.4 4.4 21 12.7 N 17 30 9 16 1019.3 1018.6 0.0
19/01:30pm 29.8 25.7 4.4 20 13.3 N 15 28 8 15 1019.7 1019.1 0.0
19/01:00pm 29.2 25.1 4.6 21 12.9 NNW 15 28 8 15 1019.9 1019.3 0.0
19/12:30pm 27.2 23.2 4.9 24 11.6 NW 15 22 8 12 1020.5 1019.9 0.0
19/12:00pm 27.6 23.9 4.6 23 11.9 NNW 13 24 7 13 1021.0 1020.4 0.0
19/11:30am 27.2 22.8 4.9 24 11.5 NNW 17 30 9 16 1021.3 1020.7 0.0
19/11:00am 27.4 23.8 5.1 24 11.6 NNW 13 20 7 11 1021.5 1020.9 0.0
19/10:30am 28.1 24.8 6.2 25 11.7 NNW 13 26 7 14 1021.5 1020.9 0.0
19/10:00am 24.6 21.9 5.4 29 9.9 NNE 9 15 5 8 1021.8 1021.2 0.0
19/09:30am 22.2 18.0 3.8 30 9.0 NE 15 22 8 12 1021.8 1021.2 0.0
19/09:00am 18.9 14.1 2.7 34 7.6 NE 17 22 9 12 1022.2 1021.6 0.0
19/08:30am 18.5 13.6 1.9 33 7.6 NE 17 24 9 13 1022.2 1021.6 0.0
19/08:00am 17.6 12.5 0.7 32 7.6 NE 17 28 9 15 1022.2 1021.6 0.0
19/07:30am 16.1 10.3 -0.2 33 7.0 NE 20 28 11 15 1021.7 1021.1 0.0
19/07:00am 14.6 8.7 -0.7 35 6.5 NE 20 33 11 18 1021.4 1020.8 0.0
19/06:30am 14.2 7.5 -1.0 35 6.3 NE 24 35 13 19 1021.3 1020.7 0.0
19/06:00am 14.2 7.5 -1.4 34 6.5 ENE 24 35 13 19 1021.3 1020.7 0.0
19/05:30am 14.1 7.7 -1.5 34 6.4 ENE 22 33 12 18 1021.4 1020.8 0.0
19/05:00am 14.0 7.3 -1.2 35 6.3 ENE 24 35 13 19 1021.5 1020.9 0.0
19/04:30am 13.7 7.0 -1.1 36 6.1 ENE 24 35 13 19 1021.4 1020.8 0.0
19/04:00am 13.7 6.6 -1.5 35 6.3 ENE 26 39 14 21 1021.5 1020.9 0.0
19/03:30am 13.4 6.3 -1.3 36 6.0 ENE 26 37 14 20 1021.5 1020.9 0.0
19/03:00am 13.6 6.1 -1.6 35 6.2 ENE 28 41 15 22 1021.7 1021.1 0.0
19/02:30am 13.5 6.0 -1.3 36 6.1 ENE 28 43 15 23 1022.0 1021.4 0.0
19/02:00am 13.4 6.3 -1.0 37 6.0 ENE 26 39 14 21 1022.4 1021.8 0.0
19/01:30am 13.9 7.2 -0.9 36 6.2 ENE 24 41 13 22 1022.9 1022.3 0.0
19/01:00am 13.8 7.2 -0.6 37 6.1 E 24 35 13 19 1023.2 1022.6 0.0
19/12:30am 13.6 7.1 0.3 40 5.7 E 24 32 13 17 1023.4 1022.8 0.0
19/12:00am 13.8 7.4 0.8 41 5.6 E 24 32 13 17 1023.7 1023.1 0.0
 
Date/Time
CST
Temp
°C
App
Temp
°C
Dew
Point
°C
Rel
Hum
%
Delta-T
°C
Wind Press
QNH
hPa
Press
MSL
hPa
Rain since
9am
mm
Dir  Spd
km/h
Gust
km/h
Spd
kts
Gust
kts
18/11:30pm 13.8 6.7 1.5 43 5.4 E 28 39 15 21 1023.7 1023.1 0.0
18/11:00pm 13.6 7.1 2.5 47 5.0 E 26 37 14 20 1023.8 1023.2 0.0
18/10:30pm 13.3 6.2 3.4 51 4.5 E 30 41 16 22 1023.9 1023.3 0.0
18/10:00pm 12.9 6.5 5.1 59 3.7 E 28 41 15 22 1024.2 1023.6 0.0
18/09:30pm 12.5 6.8 6.8 68 2.8 E 26 33 14 18 1024.1 1023.5 0.0
18/09:00pm 12.3 7.1 7.4 72 2.4 ESE 24 32 13 17 1024.1 1023.5 0.0
18/08:30pm 12.2 6.3 7.7 74 2.2 ESE 28 35 15 19 1023.9 1023.3 0.0
18/08:00pm 12.2 6.8 7.9 75 2.1 ESE 26 33 14 18 1023.9 1023.3 0.0
18/07:30pm 12.3 7.2 7.6 73 2.3 ESE 24 35 13 19 1023.9 1023.3 0.0
18/07:00pm 12.5 7.2 7.0 69 2.7 ESE 24 33 13 18 1023.7 1023.1 0.0
18/06:30pm 13.0 7.9 5.9 62 3.4 ESE 22 33 12 18 1023.6 1023.0 0.0
18/06:00pm 14.0 8.9 4.3 52 4.5 ESE 20 30 11 16 1023.4 1022.8 0.0
18/05:30pm 15.9 9.8 0.5 35 6.7 E 22 32 12 17 1023.4 1022.8 0.0
18/05:00pm 16.7 11.0 0.8 34 7.1 E 20 30 11 16 1023.2 1022.6 0.0
18/04:30pm 17.3 11.2 0.5 32 7.4 E 22 35 12 19 1023.3 1022.7 0.0
18/04:00pm 17.7 11.3 0.8 32 7.6 E 24 35 13 19 1023.3 1022.7 0.0
18/03:30pm 17.9 11.6 1.4 33 7.5 E 24 37 13 20 1023.4 1022.8 0.0
18/03:00pm 18.3 12.9 1.3 32 7.7 E 19 30 10 16 1023.7 1023.1 0.0
18/02:30pm 17.3 11.5 2.1 36 7.0 E 22 35 12 19 1023.8 1023.2 0.0
18/02:00pm 17.7 11.6 2.8 37 7.0 E 24 37 13 20 1024.0 1023.4 0.0
18/01:30pm 17.6 12.0 3.5 39 6.7 E 22 35 12 19 1024.1 1023.5 0.0
18/01:00pm 16.9 11.1 4.3 43 6.0 ESE 24 33 13 18 1024.5 1024.0 0.0
18/12:30pm 16.6 11.2 4.3 44 5.9 E 22 33 12 18 1025.1 1024.5 0.0
18/12:00pm 16.6 11.0 5.3 47 5.5 E 24 33 13 18 1025.7 1025.1 0.0
18/11:30am 15.9 10.6 5.2 49 5.2 E 22 39 12 21 1025.9 1025.3 0.0
18/11:00am 15.5 9.5 5.4 51 4.9 E 26 39 14 21 1026.1 1025.5 0.0
18/10:30am 14.5 8.9 5.6 55 4.3 E 24 37 13 20 1026.2 1025.6 0.0
18/10:00am 13.9 7.2 5.8 58 3.9 E 30 43 16 23 1026.3 1025.7 0.0
18/09:30am 14.1 8.7 6.5 60 3.7 E 24 33 13 18 1026.3 1025.7 0.0
18/09:00am 13.5 8.5 6.4 62 3.4 E 22 33 12 18 1026.5 1025.9 0.0
18/08:30am 12.3 6.5 6.1 66 3.0 ENE 26 39 14 21 1026.2 1025.6 0.0
18/08:00am 11.7 6.7 6.4 70 2.6 E 22 32 12 17 1025.9 1025.3 0.0
18/07:30am 11.0 6.4 6.4 73 2.2 E 20 30 11 16 1025.6 1025.0 0.0
18/07:00am 10.2 5.6 6.5 78 1.8 E 20 26 11 14 1025.4 1024.8 0.0
18/06:30am 10.3 5.6 6.1 75 2.0 E 20 26 11 14 1025.1 1024.5 0.0
18/06:00am 10.2 6.1 6.0 75 2.0 E 17 20 9 11 1024.9 1024.3 0.0
18/05:30am 10.5 6.7 5.7 72 2.2 E 15 20 8 11 1024.5 1024.0 0.0
18/05:00am 10.6 6.1 6.0 73 2.2 ESE 19 24 10 13 1024.0 1023.4 0.0
18/04:30am 10.6 6.5 6.4 75 2.0 ESE 17 24 9 13 1024.0 1023.4 0.0
18/04:00am 10.5 6.4 6.3 75 2.0 ESE 17 22 9 12 1023.6 1023.0 0.0
18/03:30am 10.4 6.7 6.2 75 2.0 ESE 15 20 8 11 1023.5 1022.9 0.0
18/03:00am 10.5 7.2 6.5 76 1.9 ESE 13 20 7 11 1023.4 1022.8 0.0
18/02:30am 10.5 7.6 6.6 77 1.9 SE 11 17 6 9 1023.7 1023.1 0.0
18/02:00am 10.5 8.1 6.8 78 1.8 SE 9 13 5 7 1023.8 1023.2 0.0
18/01:30am 10.7 8.3 6.8 77 1.9 SE 9 13 5 7 1023.9 1023.3 0.0
18/01:00am 11.4 9.0 6.9 74 2.2 SE 9 13 5 7 1023.7 1023.1 0.0
18/12:30am 10.9 8.8 6.8 76 2.0 SSE 7 11 4 6 1023.6 1023.0 0.0
18/12:00am 11.2 9.2 7.1 76 2.0 S 7 9 4 5 1023.6 1023.0 0.0
 
Date/Time
CST
Temp
°C
App
Temp
°C
Dew
Point
°C
Rel
Hum
%
Delta-T
°C
Wind Press
QNH
hPa
Press
MSL
hPa
Rain since
9am
mm
Dir  Spd
km/h
Gust
km/h
Spd
kts
Gust
kts
17/11:30pm 11.5 9.1 7.2 75 2.1 S 9 13 5 7 1023.6 1023.0 0.0
17/11:00pm 11.8 9.2 7.7 76 2.0 S 11 20 6 11 1023.5 1022.9 0.0
17/10:30pm 12.3 9.3 7.8 74 2.2 S 13 20 7 11 1023.5 1022.9 0.0
17/10:00pm 12.8 9.1 7.9 72 2.5 S 17 26 9 14 1023.4 1022.8 0.0
17/09:30pm 13.2 10.4 8.7 74 2.3 S 13 22 7 12 1023.3 1022.7 0.0
17/09:00pm 13.7 10.4 9.7 77 2.1 S 17 26 9 14 1023.1 1022.5 0.0
17/08:30pm 13.9 11.1 10.1 78 2.0 S 15 24 8 13 1022.8 1022.2 0.0
17/08:00pm 14.2 11.2 10.6 79 1.9 SSW 17 26 9 14 1022.6 1022.0 0.0
17/07:30pm 14.9 12.5 11.3 79 2.0 S 15 26 8 14 1022.2 1021.6 0.0
17/07:00pm 15.9 13.5 12.6 81 1.9 SSW 17 28 9 15 1021.4 1020.8 0.0
17/06:30pm 15.7 14.9 12.8 83 1.6 WSW 9 13 5 7 1020.6 1020.0 0.0
17/06:00pm 16.1 14.4 12.5 79 2.0 WSW 13 19 7 10 1020.2 1019.6 0.0
17/05:30pm 16.7 14.2 13.4 81 1.9 WSW 19 30 10 16 1019.7 1019.1 0.0
17/05:00pm 17.3 15.0 14.6 84 1.6 WSW 20 28 11 15 1018.9 1018.3 0.0
17/04:30pm 17.9 15.9 14.0 78 2.3 SW 17 28 9 15 1018.6 1018.0 0.0
17/04:00pm 18.9 16.6 13.1 69 3.3 SW 17 28 9 15 1018.5 1017.9 0.0
17/03:30pm 20.1 18.3 13.3 65 3.9 WSW 15 26 8 14 1017.9 1017.3 0.0
17/03:00pm 19.4 16.1 12.9 66 3.7 WSW 22 35 12 19 1017.6 1017.0 0.0
17/02:30pm 20.5 17.9 13.9 66 3.9 WSW 20 32 11 17 1017.5 1016.9 0.0
17/02:00pm 20.6 18.3 13.1 62 4.3 WSW 17 24 9 13 1017.0 1016.3 0.0
17/01:30pm 21.4 19.8 13.8 62 4.5 W 15 22 8 12 1016.8 1016.1 0.0
17/01:00pm 21.0 18.5 13.4 62 4.4 WSW 19 32 10 17 1016.7 1016.0 0.0
17/12:30pm 21.1 18.5 13.8 63 4.3 WSW 20 32 11 17 1016.8 1016.1 0.0
17/12:00pm 22.6 20.5 15.2 63 4.5 W 20 35 11 19 1016.5 1015.8 0.0
17/11:30am 23.4 19.3 11.5 47 6.8 WNW 24 46 13 25 1016.5 1015.8 0.0
17/11:00am 22.7 17.8 8.4 40 7.7 NW 24 37 13 20 1016.2 1015.5 0.0
17/10:30am 22.9 18.4 8.6 40 7.7 NW 22 35 12 19 1015.8 1015.2 0.0
17/10:00am 23.3 19.0 7.8 37 8.3 NW 20 32 11 17 1016.4 1015.7 0.0
17/09:30am 23.7 19.7 8.2 37 8.4 NNW 19 35 10 19 1016.6 1015.9 0.0
17/09:00am 24.7 20.6 7.8 34 9.1 NW 19 32 10 17 1016.6 1015.9 0.0
17/08:30am 23.9 19.0 7.1 34 8.9 NNW 22 39 12 21 1016.7 1016.0 0.0
17/08:00am 23.4 18.9 7.1 35 8.6 NNW 20 35 11 19 1016.4 1015.7 0.0
17/07:30am 22.9 18.6 7.1 36 8.3 NNW 19 35 10 19 1015.7 1015.1 0.0
17/07:00am 22.9 18.7 5.8 33 8.8 NNW 17 30 9 16 1015.8 1015.2 0.0
17/06:30am 23.8 18.8 4.7 29 9.7 NW 20 32 11 17 1015.7 1015.1 0.0
17/06:00am 24.7 19.2 3.9 26 10.4 NW 22 33 12 18 1015.2 1014.6 0.0
17/05:30am 24.8 19.4 4.5 27 10.3 NNW 22 39 12 21 1014.3 1013.6 0.0
17/05:00am 24.9 19.0 4.1 26 10.5 NNW 24 44 13 24 1013.8 1013.1 0.0
17/04:30am 25.1 18.6 4.8 27 10.4 NNW 28 41 15 22 1013.8 1013.1 0.0
17/04:07am 26.2 19.5 3.5 23 11.4 NNW 28 54 15 29 1012.5 1011.9 0.0
17/04:00am 26.0 20.0 3.3 23 11.4 N 24 50 13 27 1012.2 1011.5 0.0
17/03:30am 26.6 19.8 3.2 22 11.8 N 28 48 15 26 1012.3 1011.6 0.0
17/03:12am 26.9 20.2 3.4 22 11.9 N 28 56 15 30 1012.4 1011.7 0.0
17/03:00am 27.0 21.0 3.5 22 11.9 N 24 48 13 26 1012.6 1012.0 0.0
17/02:30am 26.9 20.0 2.7 21 12.1 N 28 46 15 25 1012.6 1012.0 0.0
17/02:11am 27.1 20.3 2.9 21 12.1 N 28 54 15 29 1012.8 1012.2 0.0
17/02:00am 26.8 20.7 2.7 21 12.0 N 24 50 13 27 1013.0 1012.4 0.0
17/01:30am 27.2 21.5 3.0 21 12.2 N 22 41 12 22 1012.8 1012.2 0.0
17/01:00am 27.4 20.5 2.5 20 12.4 N 28 59 15 32 1013.1 1012.5 0.0
17/12:36am 27.8 20.9 2.8 20 12.6 N 28 54 15 29 1013.2 1012.6 0.0
17/12:30am 27.7 21.2 2.7 20 12.5 N 26 46 14 25 1013.4 1012.7 0.0
17/12:00am 26.9 21.7 2.7 21 12.1 N 19 35 10 19 1013.4 1012.7 0.0
 
Date/Time
CST
Temp
°C
App
Temp
°C
Dew
Point
°C
Rel
Hum
%
Delta-T
°C
Wind Press
QNH
hPa
Press
MSL
hPa
Rain since
9am
mm
Dir  Spd
km/h
Gust
km/h
Spd
kts
Gust
kts
16/11:30pm 26.9 21.7 3.4 22 11.9 N 20 32 11 17 1013.7 1013.0 0.0
16/11:00pm 26.9 21.7 3.4 22 11.9 N 20 32 11 17 1014.2 1013.5 0.0
16/10:30pm 27.1 22.1 3.6 22 11.9 N 19 30 10 16 1014.4 1013.7 0.0
16/10:00pm 27.6 22.5 4.0 22 12.1 N 20 35 11 19 1014.5 1013.8 0.0
16/09:30pm 27.6 22.6 4.6 23 11.9 N 20 35 11 19 1014.6 1013.9 0.0
16/09:00pm 27.2 22.8 4.9 24 11.6 N 17 30 9 16 1014.8 1014.1 0.0
16/08:30pm 27.2 23.2 4.9 24 11.6 N 15 26 8 14 1014.8 1014.1 0.0
16/08:00pm 27.3 22.9 5.0 24 11.6 N 17 30 9 16 1014.7 1014.0 0.0
16/07:30pm 27.2 23.2 4.9 24 11.6 N 15 20 8 11 1014.7 1014.0 0.0
16/07:00pm 26.8 23.2 5.1 25 11.3 N 13 20 7 11 1014.6 1013.9 0.0
16/06:30pm 26.9 23.3 5.2 25 11.3 N 13 22 7 12 1014.5 1013.8 0.0
16/06:00pm 28.0 23.6 5.0 23 12.0 NNW 17 28 9 15 1014.3 1013.6 0.0
16/05:30pm 28.8 24.1 5.0 22 12.5 NNW 19 30 10 16 1014.0 1013.3 0.0
16/05:00pm 28.8 24.1 5.0 22 12.5 NNW 19 33 10 18 1013.9 1013.2 0.0
16/04:30pm 29.1 24.4 5.2 22 12.6 NW 19 33 10 18 1014.0 1013.3 0.0
16/04:00pm 29.9 24.6 5.2 21 13.1 NNW 22 35 12 19 1014.3 1013.6 0.0

Latest Capital City Observations: Canberra | Sydney | Melbourne | Brisbane | Adelaide | Perth | Hobart | Darwin

Other formats

Comma delimited format used in spreadsheet applications
http://www.bom.gov.au/fwo/IDS60901/IDS60901.94683.axf

JavaScript Object Notation format (JSON) in row-major order
http://www.bom.gov.au/fwo/IDS60901/IDS60901.94683.json

Data quality

Most of these data are generated automatically and are frequently updated. Quality checks on data are not normally performed. It is possible for incorrect values to appear. Refer to information at About Latest Weather Observations and please check the disclaimer before using these data.